sensor_id;sensor_type;location;lat;lon;timestamp;temperature;humidity
975;DHT22;6115;49.296;10.602;2022-08-21T00:02:55;16.50;83.60
975;DHT22;6115;49.296;10.602;2022-08-21T00:07:56;16.50;83.60
975;DHT22;6115;49.296;10.602;2022-08-21T00:12:56;16.50;83.60
975;DHT22;6115;49.296;10.602;2022-08-21T00:17:57;16.50;83.80
975;DHT22;6115;49.296;10.602;2022-08-21T00:22:59;16.40;84.00
975;DHT22;6115;49.296;10.602;2022-08-21T00:28:00;16.40;84.00
975;DHT22;6115;49.296;10.602;2022-08-21T00:33:03;16.40;83.60
975;DHT22;6115;49.296;10.602;2022-08-21T00:38:06;16.30;83.50
975;DHT22;6115;49.296;10.602;2022-08-21T00:43:11;16.20;83.50
975;DHT22;6115;49.296;10.602;2022-08-21T00:48:12;16.20;83.80
975;DHT22;6115;49.296;10.602;2022-08-21T00:53:13;16.20;83.80
975;DHT22;6115;49.296;10.602;2022-08-21T00:58:15;16.20;83.90
975;DHT22;6115;49.296;10.602;2022-08-21T01:03:19;16.10;84.30
975;DHT22;6115;49.296;10.602;2022-08-21T01:08:20;16.10;84.80
975;DHT22;6115;49.296;10.602;2022-08-21T01:13:23;16.20;84.70
975;DHT22;6115;49.296;10.602;2022-08-21T01:18:26;16.20;84.30
975;DHT22;6115;49.296;10.602;2022-08-21T01:23:27;16.20;84.30
975;DHT22;6115;49.296;10.602;2022-08-21T01:28:31;16.10;84.30
975;DHT22;6115;49.296;10.602;2022-08-21T01:33:33;16.10;84.30
975;DHT22;6115;49.296;10.602;2022-08-21T01:38:34;16.20;84.70
975;DHT22;6115;49.296;10.602;2022-08-21T01:43:35;16.20;84.90
975;DHT22;6115;49.296;10.602;2022-08-21T01:48:36;16.10;84.90
975;DHT22;6115;49.296;10.602;2022-08-21T01:53:37;16.10;84.90
975;DHT22;6115;49.296;10.602;2022-08-21T01:58:40;16.20;84.70
975;DHT22;6115;49.296;10.602;2022-08-21T02:03:41;16.10;84.40
975;DHT22;6115;49.296;10.602;2022-08-21T02:08:42;16.10;84.60
975;DHT22;6115;49.296;10.602;2022-08-21T02:13:45;16.10;84.40
975;DHT22;6115;49.296;10.602;2022-08-21T02:18:46;16.10;84.80
975;DHT22;6115;49.296;10.602;2022-08-21T02:23:47;16.00;84.80
975;DHT22;6115;49.296;10.602;2022-08-21T02:28:48;16.00;85.50
975;DHT22;6115;49.296;10.602;2022-08-21T02:33:48;16.00;84.70
975;DHT22;6115;49.296;10.602;2022-08-21T02:38:49;15.90;84.60
975;DHT22;6115;49.296;10.602;2022-08-21T02:43:50;16.00;84.70
975;DHT22;6115;49.296;10.602;2022-08-21T02:48:50;16.00;84.80
975;DHT22;6115;49.296;10.602;2022-08-21T02:53:51;16.00;84.80
975;DHT22;6115;49.296;10.602;2022-08-21T02:58:52;16.00;84.80
975;DHT22;6115;49.296;10.602;2022-08-21T03:03:52;16.00;84.80
975;DHT22;6115;49.296;10.602;2022-08-21T03:08:53;16.00;84.80
975;DHT22;6115;49.296;10.602;2022-08-21T03:13:54;16.00;84.80
975;DHT22;6115;49.296;10.602;2022-08-21T03:18:58;16.00;84.70
975;DHT22;6115;49.296;10.602;2022-08-21T03:23:58;16.00;84.20
975;DHT22;6115;49.296;10.602;2022-08-21T03:28:59;15.90;84.00
975;DHT22;6115;49.296;10.602;2022-08-21T03:33:59;15.80;83.80
975;DHT22;6115;49.296;10.602;2022-08-21T03:39:00;15.60;83.90
975;DHT22;6115;49.296;10.602;2022-08-21T03:44:00;15.50;83.90
975;DHT22;6115;49.296;10.602;2022-08-21T03:49:01;15.50;83.70
975;DHT22;6115;49.296;10.602;2022-08-21T03:54:02;15.40;83.50
975;DHT22;6115;49.296;10.602;2022-08-21T03:59:03;15.40;83.30
975;DHT22;6115;49.296;10.602;2022-08-21T04:04:05;15.40;83.20
975;DHT22;6115;49.296;10.602;2022-08-21T04:09:06;15.40;82.80
975;DHT22;6115;49.296;10.602;2022-08-21T04:14:06;15.30;82.50
975;DHT22;6115;49.296;10.602;2022-08-21T04:19:08;15.30;82.50
975;DHT22;6115;49.296;10.602;2022-08-21T04:24:09;15.20;82.40
975;DHT22;6115;49.296;10.602;2022-08-21T04:29:10;15.10;82.30
975;DHT22;6115;49.296;10.602;2022-08-21T04:34:11;15.00;82.50
975;DHT22;6115;49.296;10.602;2022-08-21T04:39:12;15.00;82.60
975;DHT22;6115;49.296;10.602;2022-08-21T04:44:13;15.00;82.50
975;DHT22;6115;49.296;10.602;2022-08-21T04:49:13;14.90;82.80
975;DHT22;6115;49.296;10.602;2022-08-21T04:54:17;14.90;83.00
975;DHT22;6115;49.296;10.602;2022-08-21T04:59:24;14.90;83.60
975;DHT22;6115;49.296;10.602;2022-08-21T05:04:29;14.80;83.50
975;DHT22;6115;49.296;10.602;2022-08-21T05:09:31;14.80;83.50
975;DHT22;6115;49.296;10.602;2022-08-21T05:14:32;14.80;83.50
975;DHT22;6115;49.296;10.602;2022-08-21T05:19:33;14.90;83.60
975;DHT22;6115;49.296;10.602;2022-08-21T05:24:33;15.00;83.80
975;DHT22;6115;49.296;10.602;2022-08-21T05:29:34;15.00;83.80
975;DHT22;6115;49.296;10.602;2022-08-21T05:34:35;15.00;83.70
975;DHT22;6115;49.296;10.602;2022-08-21T05:39:35;15.10;83.90
975;DHT22;6115;49.296;10.602;2022-08-21T05:44:36;15.20;83.90
975;DHT22;6115;49.296;10.602;2022-08-21T05:49:36;15.20;84.00
975;DHT22;6115;49.296;10.602;2022-08-21T05:54:37;15.20;84.20
975;DHT22;6115;49.296;10.602;2022-08-21T05:59:38;15.30;84.10
975;DHT22;6115;49.296;10.602;2022-08-21T06:04:39;15.30;84.10
975;DHT22;6115;49.296;10.602;2022-08-21T06:09:40;15.40;84.20
975;DHT22;6115;49.296;10.602;2022-08-21T06:14:41;15.50;84.30
975;DHT22;6115;49.296;10.602;2022-08-21T06:19:42;15.60;84.20
975;DHT22;6115;49.296;10.602;2022-08-21T06:24:42;15.70;83.40
975;DHT22;6115;49.296;10.602;2022-08-21T06:29:43;15.80;83.10
975;DHT22;6115;49.296;10.602;2022-08-21T06:34:45;15.90;83.10
975;DHT22;6115;49.296;10.602;2022-08-21T06:39:45;16.00;83.10
975;DHT22;6115;49.296;10.602;2022-08-21T06:44:47;16.20;83.10
975;DHT22;6115;49.296;10.602;2022-08-21T06:49:48;16.30;82.90
975;DHT22;6115;49.296;10.602;2022-08-21T06:54:48;16.60;83.40
975;DHT22;6115;49.296;10.602;2022-08-21T06:59:50;16.70;82.80
975;DHT22;6115;49.296;10.602;2022-08-21T07:04:50;16.80;82.00
975;DHT22;6115;49.296;10.602;2022-08-21T07:09:51;17.00;81.00
975;DHT22;6115;49.296;10.602;2022-08-21T07:14:51;17.10;81.10
975;DHT22;6115;49.296;10.602;2022-08-21T07:19:52;17.40;81.40
975;DHT22;6115;49.296;10.602;2022-08-21T07:24:54;17.60;80.70
975;DHT22;6115;49.296;10.602;2022-08-21T07:29:54;17.70;80.10
975;DHT22;6115;49.296;10.602;2022-08-21T07:34:55;17.90;79.40
975;DHT22;6115;49.296;10.602;2022-08-21T07:39:56;18.00;78.70
975;DHT22;6115;49.296;10.602;2022-08-21T07:44:56;18.20;77.30
975;DHT22;6115;49.296;10.602;2022-08-21T07:49:57;18.40;77.50
975;DHT22;6115;49.296;10.602;2022-08-21T07:54:58;18.50;76.70
975;DHT22;6115;49.296;10.602;2022-08-21T07:59:58;18.70;76.20
975;DHT22;6115;49.296;10.602;2022-08-21T08:05:04;18.90;75.50
975;DHT22;6115;49.296;10.602;2022-08-21T08:10:06;19.00;75.20
975;DHT22;6115;49.296;10.602;2022-08-21T08:15:11;19.20;73.90
975;DHT22;6115;49.296;10.602;2022-08-21T08:20:14;19.40;73.60
975;DHT22;6115;49.296;10.602;2022-08-21T08:25:16;19.70;73.40
975;DHT22;6115;49.296;10.602;2022-08-21T08:30:18;20.10;72.30
975;DHT22;6115;49.296;10.602;2022-08-21T08:35:19;20.20;69.30
975;DHT22;6115;49.296;10.602;2022-08-21T08:40:33;20.60;68.40
975;DHT22;6115;49.296;10.602;2022-08-21T08:45:37;21.00;67.70
975;DHT22;6115;49.296;10.602;2022-08-21T08:50:59;21.20;66.00
975;DHT22;6115;49.296;10.602;2022-08-21T08:56:03;21.40;62.80
975;DHT22;6115;49.296;10.602;2022-08-21T09:01:13;21.80;62.50
975;DHT22;6115;49.296;10.602;2022-08-21T09:06:28;22.00;60.90
975;DHT22;6115;49.296;10.602;2022-08-21T09:17:17;22.80;59.90
975;DHT22;6115;49.296;10.602;2022-08-21T09:27:56;23.40;56.20
975;DHT22;6115;49.296;10.602;2022-08-21T09:32:56;23.30;56.10
975;DHT22;6115;49.296;10.602;2022-08-21T09:38:05;23.30;55.60
975;DHT22;6115;49.296;10.602;2022-08-21T09:48:23;24.50;51.40
975;DHT22;6115;49.296;10.602;2022-08-21T09:53:27;24.80;49.80
975;DHT22;6115;49.296;10.602;2022-08-21T09:58:35;25.20;50.30
975;DHT22;6115;49.296;10.602;2022-08-21T10:03:36;25.20;47.30
975;DHT22;6115;49.296;10.602;2022-08-21T10:08:38;25.00;48.10
975;DHT22;6115;49.296;10.602;2022-08-21T10:24:19;25.40;49.00
975;DHT22;6115;49.296;10.602;2022-08-21T10:29:49;25.70;45.40
975;DHT22;6115;49.296;10.602;2022-08-21T10:40:29;26.70;43.00
975;DHT22;6115;49.296;10.602;2022-08-21T10:51:02;25.60;42.90
975;DHT22;6115;49.296;10.602;2022-08-21T10:56:20;25.20;43.40
975;DHT22;6115;49.296;10.602;2022-08-21T11:06:41;25.90;42.50
975;DHT22;6115;49.296;10.602;2022-08-21T11:11:56;26.70;41.90
975;DHT22;6115;49.296;10.602;2022-08-21T11:17:07;27.20;39.80
975;DHT22;6115;49.296;10.602;2022-08-21T11:22:33;27.00;38.80
975;DHT22;6115;49.296;10.602;2022-08-21T11:28:02;26.80;38.30
975;DHT22;6115;49.296;10.602;2022-08-21T11:38:13;28.00;37.20
975;DHT22;6115;49.296;10.602;2022-08-21T11:43:39;28.00;35.20
975;DHT22;6115;49.296;10.602;2022-08-21T11:54:21;26.60;38.20
975;DHT22;6115;49.296;10.602;2022-08-21T11:59:43;27.20;36.30
975;DHT22;6115;49.296;10.602;2022-08-21T12:04:48;27.60;37.00
975;DHT22;6115;49.296;10.602;2022-08-21T12:09:55;27.60;36.80
975;DHT22;6115;49.296;10.602;2022-08-21T12:25:21;27.70;32.10
975;DHT22;6115;49.296;10.602;2022-08-21T12:35:32;28.00;34.10
975;DHT22;6115;49.296;10.602;2022-08-21T12:40:49;28.70;32.30
975;DHT22;6115;49.296;10.602;2022-08-21T12:45:50;28.50;32.00
975;DHT22;6115;49.296;10.602;2022-08-21T12:50:57;28.60;31.90
975;DHT22;6115;49.296;10.602;2022-08-21T12:56:03;29.00;29.70
975;DHT22;6115;49.296;10.602;2022-08-21T13:01:25;29.50;30.90
975;DHT22;6115;49.296;10.602;2022-08-21T13:06:31;29.10;31.10
975;DHT22;6115;49.296;10.602;2022-08-21T13:11:33;28.90;31.40
975;DHT22;6115;49.296;10.602;2022-08-21T13:16:34;28.70;30.30
975;DHT22;6115;49.296;10.602;2022-08-21T13:21:39;28.50;29.80
975;DHT22;6115;49.296;10.602;2022-08-21T13:26:41;28.50;29.50
975;DHT22;6115;49.296;10.602;2022-08-21T13:31:54;28.90;29.50
975;DHT22;6115;49.296;10.602;2022-08-21T13:36:58;29.60;30.00
975;DHT22;6115;49.296;10.602;2022-08-21T13:42:02;30.20;29.10
975;DHT22;6115;49.296;10.602;2022-08-21T13:47:05;30.50;27.80
975;DHT22;6115;49.296;10.602;2022-08-21T13:52:22;30.60;28.00
975;DHT22;6115;49.296;10.602;2022-08-21T14:02:26;31.80;25.20
975;DHT22;6115;49.296;10.602;2022-08-21T14:07:35;31.60;25.10
975;DHT22;6115;49.296;10.602;2022-08-21T14:12:58;31.10;26.40
975;DHT22;6115;49.296;10.602;2022-08-21T14:18:13;31.90;25.30
975;DHT22;6115;49.296;10.602;2022-08-21T14:23:25;31.90;25.30
975;DHT22;6115;49.296;10.602;2022-08-21T14:28:30;32.10;23.70
975;DHT22;6115;49.296;10.602;2022-08-21T14:33:32;31.60;24.00
975;DHT22;6115;49.296;10.602;2022-08-21T14:38:36;30.80;24.50
975;DHT22;6115;49.296;10.602;2022-08-21T14:43:37;31.30;24.50
975;DHT22;6115;49.296;10.602;2022-08-21T14:48:37;32.30;22.30
975;DHT22;6115;49.296;10.602;2022-08-21T14:53:38;32.40;22.90
975;DHT22;6115;49.296;10.602;2022-08-21T14:58:46;31.30;24.50
975;DHT22;6115;49.296;10.602;2022-08-21T15:03:48;31.70;23.60
975;DHT22;6115;49.296;10.602;2022-08-21T15:08:49;31.90;24.00
975;DHT22;6115;49.296;10.602;2022-08-21T15:13:55;31.80;23.40
975;DHT22;6115;49.296;10.602;2022-08-21T15:18:56;31.90;23.50
975;DHT22;6115;49.296;10.602;2022-08-21T15:23:57;32.20;22.60
975;DHT22;6115;49.296;10.602;2022-08-21T15:28:59;32.40;22.30
975;DHT22;6115;49.296;10.602;2022-08-21T15:34:00;32.20;22.20
975;DHT22;6115;49.296;10.602;2022-08-21T15:39:00;31.50;24.20
975;DHT22;6115;49.296;10.602;2022-08-21T15:44:01;31.70;23.90
975;DHT22;6115;49.296;10.602;2022-08-21T15:49:02;31.80;23.80
975;DHT22;6115;49.296;10.602;2022-08-21T15:54:03;31.50;24.30
975;DHT22;6115;49.296;10.602;2022-08-21T15:59:08;31.30;24.40
975;DHT22;6115;49.296;10.602;2022-08-21T16:04:09;31.10;25.00
975;DHT22;6115;49.296;10.602;2022-08-21T16:09:10;31.10;24.40
975;DHT22;6115;49.296;10.602;2022-08-21T16:14:12;30.70;24.70
975;DHT22;6115;49.296;10.602;2022-08-21T16:19:14;30.60;24.90
975;DHT22;6115;49.296;10.602;2022-08-21T16:24:15;30.20;25.10
975;DHT22;6115;49.296;10.602;2022-08-21T16:29:15;29.80;26.20
975;DHT22;6115;49.296;10.602;2022-08-21T16:34:18;29.30;26.00
975;DHT22;6115;49.296;10.602;2022-08-21T16:39:19;28.70;26.60
975;DHT22;6115;49.296;10.602;2022-08-21T16:44:21;28.30;26.60
975;DHT22;6115;49.296;10.602;2022-08-21T16:49:22;28.00;28.00
975;DHT22;6115;49.296;10.602;2022-08-21T16:54:22;27.50;28.00
975;DHT22;6115;49.296;10.602;2022-08-21T16:59:23;27.20;28.10
975;DHT22;6115;49.296;10.602;2022-08-21T17:04:24;27.10;28.80
975;DHT22;6115;49.296;10.602;2022-08-21T17:09:25;27.00;29.50
975;DHT22;6115;49.296;10.602;2022-08-21T17:14:25;26.80;30.20
975;DHT22;6115;49.296;10.602;2022-08-21T17:19:26;26.70;29.80
975;DHT22;6115;49.296;10.602;2022-08-21T17:24:27;26.60;30.90
975;DHT22;6115;49.296;10.602;2022-08-21T17:29:35;26.40;31.70
975;DHT22;6115;49.296;10.602;2022-08-21T17:34:37;26.30;31.00
975;DHT22;6115;49.296;10.602;2022-08-21T17:39:38;26.10;32.70
975;DHT22;6115;49.296;10.602;2022-08-21T17:44:41;25.90;34.30
975;DHT22;6115;49.296;10.602;2022-08-21T17:49:42;25.70;34.80
975;DHT22;6115;49.296;10.602;2022-08-21T17:54:43;25.40;35.50
975;DHT22;6115;49.296;10.602;2022-08-21T17:59:43;25.20;36.40
975;DHT22;6115;49.296;10.602;2022-08-21T18:04:44;24.80;38.00
975;DHT22;6115;49.296;10.602;2022-08-21T18:09:45;24.50;39.70
975;DHT22;6115;49.296;10.602;2022-08-21T18:14:45;24.40;40.40
975;DHT22;6115;49.296;10.602;2022-08-21T18:19:48;24.10;40.80
975;DHT22;6115;49.296;10.602;2022-08-21T18:24:48;23.80;41.80
975;DHT22;6115;49.296;10.602;2022-08-21T18:29:51;23.50;43.60
975;DHT22;6115;49.296;10.602;2022-08-21T18:34:54;23.30;44.00
975;DHT22;6115;49.296;10.602;2022-08-21T18:39:55;23.00;44.10
975;DHT22;6115;49.296;10.602;2022-08-21T18:44:59;22.70;44.20
975;DHT22;6115;49.296;10.602;2022-08-21T18:50:02;22.40;44.30
975;DHT22;6115;49.296;10.602;2022-08-21T18:55:04;22.20;45.50
975;DHT22;6115;49.296;10.602;2022-08-21T19:00:07;22.00;47.10
975;DHT22;6115;49.296;10.602;2022-08-21T19:05:14;21.60;47.80
975;DHT22;6115;49.296;10.602;2022-08-21T19:10:16;21.50;48.00
975;DHT22;6115;49.296;10.602;2022-08-21T19:15:19;21.30;48.90
975;DHT22;6115;49.296;10.602;2022-08-21T19:20:29;21.00;49.10
975;DHT22;6115;49.296;10.602;2022-08-21T19:25:31;20.80;50.00
975;DHT22;6115;49.296;10.602;2022-08-21T19:30:32;20.40;51.60
975;DHT22;6115;49.296;10.602;2022-08-21T19:35:32;20.20;53.00
975;DHT22;6115;49.296;10.602;2022-08-21T19:40:33;20.20;53.30
975;DHT22;6115;49.296;10.602;2022-08-21T19:45:37;20.10;53.00
975;DHT22;6115;49.296;10.602;2022-08-21T19:50:37;20.00;54.10
975;DHT22;6115;49.296;10.602;2022-08-21T19:55:43;19.90;54.50
975;DHT22;6115;49.296;10.602;2022-08-21T20:00:44;19.70;54.80
975;DHT22;6115;49.296;10.602;2022-08-21T20:05:44;19.60;55.60
975;DHT22;6115;49.296;10.602;2022-08-21T20:10:45;19.40;55.40
975;DHT22;6115;49.296;10.602;2022-08-21T20:15:46;19.40;55.50
975;DHT22;6115;49.296;10.602;2022-08-21T20:20:47;19.20;56.00
975;DHT22;6115;49.296;10.602;2022-08-21T20:25:50;19.10;56.80
975;DHT22;6115;49.296;10.602;2022-08-21T20:30:51;19.00;57.30
975;DHT22;6115;49.296;10.602;2022-08-21T20:35:52;18.80;57.70
975;DHT22;6115;49.296;10.602;2022-08-21T20:40:53;18.60;57.50
975;DHT22;6115;49.296;10.602;2022-08-21T20:45:54;18.50;57.60
975;DHT22;6115;49.296;10.602;2022-08-21T20:51:12;18.40;57.70
975;DHT22;6115;49.296;10.602;2022-08-21T21:01:38;18.00;59.80
975;DHT22;6115;49.296;10.602;2022-08-21T21:06:39;17.80;61.10
975;DHT22;6115;49.296;10.602;2022-08-21T21:11:46;17.80;61.90
975;DHT22;6115;49.296;10.602;2022-08-21T21:16:51;17.80;61.90
975;DHT22;6115;49.296;10.602;2022-08-21T21:21:59;17.70;62.50
975;DHT22;6115;49.296;10.602;2022-08-21T21:27:10;17.50;62.00
975;DHT22;6115;49.296;10.602;2022-08-21T21:32:12;17.50;62.80
975;DHT22;6115;49.296;10.602;2022-08-21T21:37:15;17.50;63.20
975;DHT22;6115;49.296;10.602;2022-08-21T21:47:58;17.30;63.50
975;DHT22;6115;49.296;10.602;2022-08-21T22:03:28;17.00;62.50
975;DHT22;6115;49.296;10.602;2022-08-21T22:08:52;16.90;62.20
975;DHT22;6115;49.296;10.602;2022-08-21T22:14:08;16.80;62.40
975;DHT22;6115;49.296;10.602;2022-08-21T22:19:23;16.60;63.30
975;DHT22;6115;49.296;10.602;2022-08-21T22:24:31;16.40;64.20
975;DHT22;6115;49.296;10.602;2022-08-21T22:29:56;16.20;65.10
975;DHT22;6115;49.296;10.602;2022-08-21T22:35:24;16.20;65.30
975;DHT22;6115;49.296;10.602;2022-08-21T22:40:34;16.10;66.30
975;DHT22;6115;49.296;10.602;2022-08-21T22:45:58;16.10;66.00
975;DHT22;6115;49.296;10.602;2022-08-21T22:51:06;15.90;66.70
975;DHT22;6115;49.296;10.602;2022-08-21T22:56:08;15.90;66.90
975;DHT22;6115;49.296;10.602;2022-08-21T23:01:32;15.90;66.50
975;DHT22;6115;49.296;10.602;2022-08-21T23:06:50;16.00;66.90
975;DHT22;6115;49.296;10.602;2022-08-21T23:11:50;16.00;67.30
975;DHT22;6115;49.296;10.602;2022-08-21T23:17:01;16.00;67.30
975;DHT22;6115;49.296;10.602;2022-08-21T23:22:19;16.00;66.90
975;DHT22;6115;49.296;10.602;2022-08-21T23:33:10;16.00;66.60
975;DHT22;6115;49.296;10.602;2022-08-21T23:38:26;16.00;66.80
975;DHT22;6115;49.296;10.602;2022-08-21T23:43:59;15.80;67.10
975;DHT22;6115;49.296;10.602;2022-08-21T23:49:29;15.60;68.10
